sensor_id;sensor_type;location;lat;lon;timestamp;P1;durP1;ratioP1;P2;durP2;ratioP2
64851;SDS011;56050;55.558;-4.644;2024-02-15T00:01:30;10.05;;;3.38;;
64851;SDS011;56050;55.558;-4.644;2024-02-15T00:03:55;7.18;;;2.95;;
64851;SDS011;56050;55.558;-4.644;2024-02-15T00:06:21;7.55;;;3.05;;
64851;SDS011;56050;55.558;-4.644;2024-02-15T00:08:46;11.90;;;3.15;;
64851;SDS011;56050;55.558;-4.644;2024-02-15T00:11:12;9.73;;;3.25;;
64851;SDS011;56050;55.558;-4.644;2024-02-15T00:13:38;9.30;;;3.88;;
64851;SDS011;56050;55.558;-4.644;2024-02-15T00:16:04;6.85;;;3.25;;
64851;SDS011;56050;55.558;-4.644;2024-02-15T00:20:56;8.77;;;2.85;;
64851;SDS011;56050;55.558;-4.644;2024-02-15T00:23:22;8.18;;;4.05;;
64851;SDS011;56050;55.558;-4.644;2024-02-15T00:28:12;6.60;;;2.97;;
64851;SDS011;56050;55.558;-4.644;2024-02-15T00:33:03;10.25;;;4.93;;
64851;SDS011;56050;55.558;-4.644;2024-02-15T00:35:29;7.15;;;2.58;;
64851;SDS011;56050;55.558;-4.644;2024-02-15T00:40:20;5.63;;;2.10;;
64851;SDS011;56050;55.558;-4.644;2024-02-15T00:42:46;6.43;;;3.10;;
64851;SDS011;56050;55.558;-4.644;2024-02-15T00:47:37;4.55;;;1.65;;
64851;SDS011;56050;55.558;-4.644;2024-02-15T00:52:29;6.72;;;1.13;;
64851;SDS011;56050;55.558;-4.644;2024-02-15T00:54:56;4.13;;;2.03;;
64851;SDS011;56050;55.558;-4.644;2024-02-15T00:57:22;7.03;;;0.98;;
64851;SDS011;56050;55.558;-4.644;2024-02-15T00:59:47;7.10;;;1.60;;
64851;SDS011;56050;55.558;-4.644;2024-02-15T01:02:13;8.73;;;1.75;;
64851;SDS011;56050;55.558;-4.644;2024-02-15T01:04:39;4.88;;;1.30;;
64851;SDS011;56050;55.558;-4.644;2024-02-15T01:07:04;5.88;;;1.70;;
64851;SDS011;56050;55.558;-4.644;2024-02-15T01:09:30;6.47;;;1.27;;
64851;SDS011;56050;55.558;-4.644;2024-02-15T01:11:55;5.80;;;1.17;;
64851;SDS011;56050;55.558;-4.644;2024-02-15T01:14:21;5.95;;;1.23;;
64851;SDS011;56050;55.558;-4.644;2024-02-15T01:16:46;6.53;;;1.83;;
64851;SDS011;56050;55.558;-4.644;2024-02-15T01:19:12;6.65;;;2.47;;
64851;SDS011;56050;55.558;-4.644;2024-02-15T01:21:37;5.10;;;2.47;;
64851;SDS011;56050;55.558;-4.644;2024-02-15T01:24:03;3.85;;;3.13;;
64851;SDS011;56050;55.558;-4.644;2024-02-15T01:26:31;6.63;;;1.38;;
64851;SDS011;56050;55.558;-4.644;2024-02-15T01:28:57;4.60;;;1.00;;
64851;SDS011;56050;55.558;-4.644;2024-02-15T01:31:22;1.98;;;1.25;;
64851;SDS011;56050;55.558;-4.644;2024-02-15T01:33:48;3.85;;;2.45;;
64851;SDS011;56050;55.558;-4.644;2024-02-15T01:36:14;5.82;;;1.48;;
64851;SDS011;56050;55.558;-4.644;2024-02-15T01:38:40;2.55;;;1.02;;
64851;SDS011;56050;55.558;-4.644;2024-02-15T01:41:07;1.48;;;0.80;;
64851;SDS011;56050;55.558;-4.644;2024-02-15T01:43:33;2.90;;;1.00;;
64851;SDS011;56050;55.558;-4.644;2024-02-15T01:45:59;1.73;;;0.75;;
64851;SDS011;56050;55.558;-4.644;2024-02-15T01:48:28;3.28;;;0.57;;
64851;SDS011;56050;55.558;-4.644;2024-02-15T01:50:57;2.45;;;0.47;;
64851;SDS011;56050;55.558;-4.644;2024-02-15T01:53:23;1.80;;;0.38;;
64851;SDS011;56050;55.558;-4.644;2024-02-15T01:55:52;2.53;;;0.90;;
64851;SDS011;56050;55.558;-4.644;2024-02-15T01:58:20;1.63;;;0.88;;
64851;SDS011;56050;55.558;-4.644;2024-02-15T02:00:46;1.20;;;1.00;;
64851;SDS011;56050;55.558;-4.644;2024-02-15T02:03:13;0.88;;;0.55;;
64851;SDS011;56050;55.558;-4.644;2024-02-15T02:05:40;1.98;;;1.50;;
64851;SDS011;56050;55.558;-4.644;2024-02-15T02:08:08;1.73;;;0.47;;
64851;SDS011;56050;55.558;-4.644;2024-02-15T02:10:37;2.00;;;1.80;;
64851;SDS011;56050;55.558;-4.644;2024-02-15T02:13:04;2.97;;;0.77;;
64851;SDS011;56050;55.558;-4.644;2024-02-15T02:15:33;1.33;;;0.80;;
64851;SDS011;56050;55.558;-4.644;2024-02-15T02:18:02;1.00;;;0.95;;
64851;SDS011;56050;55.558;-4.644;2024-02-15T02:20:31;0.85;;;0.68;;
64851;SDS011;56050;55.558;-4.644;2024-02-15T02:23:15;0.40;;;0.35;;
64851;SDS011;56050;55.558;-4.644;2024-02-15T02:25:41;1.33;;;0.88;;
64851;SDS011;56050;55.558;-4.644;2024-02-15T02:28:08;4.07;;;0.68;;
64851;SDS011;56050;55.558;-4.644;2024-02-15T02:30:35;1.63;;;1.52;;
64851;SDS011;56050;55.558;-4.644;2024-02-15T02:33:00;1.67;;;0.50;;
64851;SDS011;56050;55.558;-4.644;2024-02-15T02:35:26;2.08;;;0.82;;
64851;SDS011;56050;55.558;-4.644;2024-02-15T02:37:55;2.30;;;0.43;;
64851;SDS011;56050;55.558;-4.644;2024-02-15T02:40:21;0.93;;;0.73;;
64851;SDS011;56050;55.558;-4.644;2024-02-15T02:42:54;1.45;;;0.55;;
64851;SDS011;56050;55.558;-4.644;2024-02-15T02:45:26;1.17;;;0.80;;
64851;SDS011;56050;55.558;-4.644;2024-02-15T02:47:52;1.40;;;0.90;;
64851;SDS011;56050;55.558;-4.644;2024-02-15T02:50:18;0.60;;;0.60;;
64851;SDS011;56050;55.558;-4.644;2024-02-15T02:52:44;1.13;;;0.35;;
64851;SDS011;56050;55.558;-4.644;2024-02-15T02:55:10;1.52;;;1.17;;
64851;SDS011;56050;55.558;-4.644;2024-02-15T02:57:36;1.58;;;1.13;;
64851;SDS011;56050;55.558;-4.644;2024-02-15T03:00:03;0.95;;;0.57;;
64851;SDS011;56050;55.558;-4.644;2024-02-15T03:02:34;2.22;;;1.60;;
64851;SDS011;56050;55.558;-4.644;2024-02-15T03:05:03;0.90;;;0.90;;
64851;SDS011;56050;55.558;-4.644;2024-02-15T03:07:32;0.85;;;0.82;;
64851;SDS011;56050;55.558;-4.644;2024-02-15T03:09:58;1.23;;;0.40;;
64851;SDS011;56050;55.558;-4.644;2024-02-15T03:12:23;0.90;;;0.90;;
64851;SDS011;56050;55.558;-4.644;2024-02-15T03:14:52;0.38;;;0.38;;
64851;SDS011;56050;55.558;-4.644;2024-02-15T03:17:17;0.88;;;0.88;;
64851;SDS011;56050;55.558;-4.644;2024-02-15T03:19:43;0.38;;;0.28;;
64851;SDS011;56050;55.558;-4.644;2024-02-15T03:22:08;1.42;;;1.33;;
64851;SDS011;56050;55.558;-4.644;2024-02-15T03:24:34;0.47;;;0.47;;
64851;SDS011;56050;55.558;-4.644;2024-02-15T03:27:00;0.25;;;0.25;;
64851;SDS011;56050;55.558;-4.644;2024-02-15T03:29:25;0.32;;;0.25;;
64851;SDS011;56050;55.558;-4.644;2024-02-15T03:31:51;0.57;;;0.55;;
64851;SDS011;56050;55.558;-4.644;2024-02-15T03:34:18;0.88;;;0.88;;
64851;SDS011;56050;55.558;-4.644;2024-02-15T03:36:46;0.82;;;0.77;;
64851;SDS011;56050;55.558;-4.644;2024-02-15T03:39:16;0.43;;;0.35;;
64851;SDS011;56050;55.558;-4.644;2024-02-15T03:41:42;0.43;;;0.38;;
64851;SDS011;56050;55.558;-4.644;2024-02-15T03:44:10;0.38;;;0.38;;
64851;SDS011;56050;55.558;-4.644;2024-02-15T03:46:36;0.35;;;0.30;;
64851;SDS011;56050;55.558;-4.644;2024-02-15T03:49:02;0.95;;;0.95;;
64851;SDS011;56050;55.558;-4.644;2024-02-15T03:51:27;0.38;;;0.38;;
64851;SDS011;56050;55.558;-4.644;2024-02-15T03:53:53;0.85;;;0.47;;
64851;SDS011;56050;55.558;-4.644;2024-02-15T03:58:46;0.70;;;0.35;;
64851;SDS011;56050;55.558;-4.644;2024-02-15T04:01:11;0.65;;;0.50;;
64851;SDS011;56050;55.558;-4.644;2024-02-15T04:03:40;0.90;;;0.90;;
64851;SDS011;56050;55.558;-4.644;2024-02-15T04:06:05;0.65;;;0.47;;
64851;SDS011;56050;55.558;-4.644;2024-02-15T04:10:56;0.30;;;0.20;;
64851;SDS011;56050;55.558;-4.644;2024-02-15T04:13:22;0.40;;;0.30;;
64851;SDS011;56050;55.558;-4.644;2024-02-15T04:15:48;0.38;;;0.38;;
64851;SDS011;56050;55.558;-4.644;2024-02-15T04:18:15;0.95;;;0.77;;
64851;SDS011;56050;55.558;-4.644;2024-02-15T04:20:42;0.55;;;0.55;;
64851;SDS011;56050;55.558;-4.644;2024-02-15T04:23:10;0.68;;;0.68;;
64851;SDS011;56050;55.558;-4.644;2024-02-15T04:25:36;0.43;;;0.43;;
64851;SDS011;56050;55.558;-4.644;2024-02-15T04:28:02;0.52;;;0.38;;
64851;SDS011;56050;55.558;-4.644;2024-02-15T04:30:29;0.35;;;0.28;;
64851;SDS011;56050;55.558;-4.644;2024-02-15T04:32:55;0.35;;;0.35;;
64851;SDS011;56050;55.558;-4.644;2024-02-15T04:35:21;0.90;;;0.77;;
64851;SDS011;56050;55.558;-4.644;2024-02-15T04:37:47;0.43;;;0.32;;
64851;SDS011;56050;55.558;-4.644;2024-02-15T04:40:14;0.43;;;0.43;;
64851;SDS011;56050;55.558;-4.644;2024-02-15T04:42:39;0.52;;;0.43;;
64851;SDS011;56050;55.558;-4.644;2024-02-15T04:45:08;0.38;;;0.32;;
64851;SDS011;56050;55.558;-4.644;2024-02-15T04:47:36;0.35;;;0.28;;
64851;SDS011;56050;55.558;-4.644;2024-02-15T04:50:02;0.50;;;0.25;;
64851;SDS011;56050;55.558;-4.644;2024-02-15T04:52:28;0.57;;;0.57;;
64851;SDS011;56050;55.558;-4.644;2024-02-15T04:54:54;0.85;;;0.75;;
64851;SDS011;56050;55.558;-4.644;2024-02-15T04:57:20;0.98;;;0.95;;
64851;SDS011;56050;55.558;-4.644;2024-02-15T04:59:45;2.70;;;0.47;;
64851;SDS011;56050;55.558;-4.644;2024-02-15T05:02:13;3.95;;;1.20;;
64851;SDS011;56050;55.558;-4.644;2024-02-15T05:04:39;0.90;;;0.77;;
64851;SDS011;56050;55.558;-4.644;2024-02-15T05:07:07;2.90;;;1.08;;
64851;SDS011;56050;55.558;-4.644;2024-02-15T05:09:33;2.25;;;1.25;;
64851;SDS011;56050;55.558;-4.644;2024-02-15T05:11:59;1.88;;;0.63;;
64851;SDS011;56050;55.558;-4.644;2024-02-15T05:14:27;1.67;;;0.98;;
64851;SDS011;56050;55.558;-4.644;2024-02-15T05:16:53;1.40;;;0.85;;
64851;SDS011;56050;55.558;-4.644;2024-02-15T05:19:19;1.35;;;0.70;;
64851;SDS011;56050;55.558;-4.644;2024-02-15T05:21:45;2.30;;;0.73;;
64851;SDS011;56050;55.558;-4.644;2024-02-15T05:24:14;1.08;;;0.55;;
64851;SDS011;56050;55.558;-4.644;2024-02-15T05:26:40;2.08;;;0.70;;
64851;SDS011;56050;55.558;-4.644;2024-02-15T05:29:14;2.00;;;0.90;;
64851;SDS011;56050;55.558;-4.644;2024-02-15T05:31:40;2.28;;;0.82;;
64851;SDS011;56050;55.558;-4.644;2024-02-15T05:34:06;2.38;;;1.08;;
64851;SDS011;56050;55.558;-4.644;2024-02-15T05:36:36;1.63;;;0.55;;
64851;SDS011;56050;55.558;-4.644;2024-02-15T05:39:03;2.80;;;0.80;;
64851;SDS011;56050;55.558;-4.644;2024-02-15T05:41:30;4.55;;;1.10;;
64851;SDS011;56050;55.558;-4.644;2024-02-15T05:43:57;4.20;;;0.68;;
64851;SDS011;56050;55.558;-4.644;2024-02-15T05:46:23;2.08;;;1.35;;
64851;SDS011;56050;55.558;-4.644;2024-02-15T05:48:49;4.32;;;1.33;;
64851;SDS011;56050;55.558;-4.644;2024-02-15T05:51:16;2.85;;;1.13;;
64851;SDS011;56050;55.558;-4.644;2024-02-15T05:53:42;2.70;;;0.77;;
64851;SDS011;56050;55.558;-4.644;2024-02-15T05:56:09;4.30;;;2.55;;
64851;SDS011;56050;55.558;-4.644;2024-02-15T05:58:38;2.83;;;1.23;;
64851;SDS011;56050;55.558;-4.644;2024-02-15T06:01:05;3.38;;;1.00;;
64851;SDS011;56050;55.558;-4.644;2024-02-15T06:03:34;2.78;;;0.63;;
64851;SDS011;56050;55.558;-4.644;2024-02-15T06:06:03;3.17;;;1.90;;
64851;SDS011;56050;55.558;-4.644;2024-02-15T06:08:32;3.65;;;0.85;;
64851;SDS011;56050;55.558;-4.644;2024-02-15T06:10:58;1.92;;;0.95;;
64851;SDS011;56050;55.558;-4.644;2024-02-15T06:13:25;3.45;;;0.98;;
64851;SDS011;56050;55.558;-4.644;2024-02-15T06:15:51;4.32;;;1.42;;
64851;SDS011;56050;55.558;-4.644;2024-02-15T06:18:20;2.35;;;1.27;;
64851;SDS011;56050;55.558;-4.644;2024-02-15T06:20:50;4.75;;;1.10;;
64851;SDS011;56050;55.558;-4.644;2024-02-15T06:23:16;5.15;;;1.48;;
64851;SDS011;56050;55.558;-4.644;2024-02-15T06:25:43;4.03;;;1.33;;
64851;SDS011;56050;55.558;-4.644;2024-02-15T06:28:09;2.15;;;1.35;;
64851;SDS011;56050;55.558;-4.644;2024-02-15T06:30:44;2.80;;;0.68;;
64851;SDS011;56050;55.558;-4.644;2024-02-15T06:33:28;2.03;;;1.35;;
64851;SDS011;56050;55.558;-4.644;2024-02-15T06:36:13;3.00;;;1.13;;
64851;SDS011;56050;55.558;-4.644;2024-02-15T06:38:56;2.72;;;1.15;;
64851;SDS011;56050;55.558;-4.644;2024-02-15T06:41:40;4.18;;;1.08;;
64851;SDS011;56050;55.558;-4.644;2024-02-15T06:44:06;1.73;;;0.90;;
64851;SDS011;56050;55.558;-4.644;2024-02-15T06:46:32;1.73;;;1.15;;
64851;SDS011;56050;55.558;-4.644;2024-02-15T06:48:58;2.20;;;1.20;;
64851;SDS011;56050;55.558;-4.644;2024-02-15T06:51:23;3.65;;;1.10;;
64851;SDS011;56050;55.558;-4.644;2024-02-15T06:53:49;1.40;;;0.85;;
64851;SDS011;56050;55.558;-4.644;2024-02-15T06:56:16;2.08;;;0.85;;
64851;SDS011;56050;55.558;-4.644;2024-02-15T06:58:45;2.90;;;2.25;;
64851;SDS011;56050;55.558;-4.644;2024-02-15T07:01:11;1.23;;;0.65;;
64851;SDS011;56050;55.558;-4.644;2024-02-15T07:03:44;2.83;;;0.95;;
64851;SDS011;56050;55.558;-4.644;2024-02-15T07:06:10;2.30;;;1.02;;
64851;SDS011;56050;55.558;-4.644;2024-02-15T07:08:38;2.97;;;1.42;;
64851;SDS011;56050;55.558;-4.644;2024-02-15T07:11:06;4.30;;;0.85;;
64851;SDS011;56050;55.558;-4.644;2024-02-15T07:13:35;2.88;;;0.88;;
64851;SDS011;56050;55.558;-4.644;2024-02-15T07:16:02;3.65;;;2.63;;
64851;SDS011;56050;55.558;-4.644;2024-02-15T07:18:31;2.17;;;1.00;;
64851;SDS011;56050;55.558;-4.644;2024-02-15T07:20:56;1.40;;;0.75;;
64851;SDS011;56050;55.558;-4.644;2024-02-15T07:23:24;2.28;;;0.60;;
64851;SDS011;56050;55.558;-4.644;2024-02-15T07:25:50;3.75;;;1.73;;
64851;SDS011;56050;55.558;-4.644;2024-02-15T07:28:19;2.28;;;1.02;;
64851;SDS011;56050;55.558;-4.644;2024-02-15T07:30:45;1.17;;;0.55;;
64851;SDS011;56050;55.558;-4.644;2024-02-15T07:33:14;1.17;;;0.63;;
64851;SDS011;56050;55.558;-4.644;2024-02-15T07:35:43;2.17;;;0.73;;
64851;SDS011;56050;55.558;-4.644;2024-02-15T07:38:09;1.73;;;0.45;;
64851;SDS011;56050;55.558;-4.644;2024-02-15T07:40:35;2.50;;;1.05;;
64851;SDS011;56050;55.558;-4.644;2024-02-15T07:43:00;1.27;;;0.50;;
64851;SDS011;56050;55.558;-4.644;2024-02-15T07:45:28;1.75;;;0.50;;
64851;SDS011;56050;55.558;-4.644;2024-02-15T07:47:54;1.08;;;0.40;;
64851;SDS011;56050;55.558;-4.644;2024-02-15T07:50:20;1.27;;;0.47;;
64851;SDS011;56050;55.558;-4.644;2024-02-15T07:52:48;1.75;;;1.55;;
64851;SDS011;56050;55.558;-4.644;2024-02-15T07:55:14;0.85;;;0.70;;
64851;SDS011;56050;55.558;-4.644;2024-02-15T07:57:40;0.90;;;0.47;;
64851;SDS011;56050;55.558;-4.644;2024-02-15T08:00:06;1.65;;;1.05;;
64851;SDS011;56050;55.558;-4.644;2024-02-15T08:02:36;0.73;;;0.32;;
64851;SDS011;56050;55.558;-4.644;2024-02-15T08:05:05;0.85;;;0.68;;
64851;SDS011;56050;55.558;-4.644;2024-02-15T08:07:35;0.73;;;0.43;;
64851;SDS011;56050;55.558;-4.644;2024-02-15T08:10:02;0.75;;;0.55;;
64851;SDS011;56050;55.558;-4.644;2024-02-15T08:12:28;0.73;;;0.57;;
64851;SDS011;56050;55.558;-4.644;2024-02-15T08:14:55;0.90;;;0.60;;
64851;SDS011;56050;55.558;-4.644;2024-02-15T08:17:20;1.20;;;1.10;;
64851;SDS011;56050;55.558;-4.644;2024-02-15T08:19:46;0.43;;;0.40;;
64851;SDS011;56050;55.558;-4.644;2024-02-15T08:22:11;0.60;;;0.60;;
64851;SDS011;56050;55.558;-4.644;2024-02-15T08:24:37;2.05;;;1.95;;
64851;SDS011;56050;55.558;-4.644;2024-02-15T08:27:02;1.77;;;0.75;;
64851;SDS011;56050;55.558;-4.644;2024-02-15T08:29:29;2.35;;;2.25;;
64851;SDS011;56050;55.558;-4.644;2024-02-15T08:31:55;0.80;;;0.30;;
64851;SDS011;56050;55.558;-4.644;2024-02-15T08:34:20;0.82;;;0.55;;
64851;SDS011;56050;55.558;-4.644;2024-02-15T08:36:46;1.15;;;1.10;;
64851;SDS011;56050;55.558;-4.644;2024-02-15T08:39:13;1.05;;;0.90;;
64851;SDS011;56050;55.558;-4.644;2024-02-15T08:41:41;1.45;;;0.77;;
64851;SDS011;56050;55.558;-4.644;2024-02-15T08:44:07;1.05;;;0.82;;
64851;SDS011;56050;55.558;-4.644;2024-02-15T08:46:36;0.82;;;0.60;;
64851;SDS011;56050;55.558;-4.644;2024-02-15T08:49:02;0.75;;;0.75;;
64851;SDS011;56050;55.558;-4.644;2024-02-15T08:51:28;1.60;;;0.80;;
64851;SDS011;56050;55.558;-4.644;2024-02-15T08:53:55;2.30;;;2.10;;
64851;SDS011;56050;55.558;-4.644;2024-02-15T08:56:21;1.17;;;0.20;;
64851;SDS011;56050;55.558;-4.644;2024-02-15T08:58:48;1.67;;;1.42;;
64851;SDS011;56050;55.558;-4.644;2024-02-15T09:01:13;1.83;;;1.05;;
64851;SDS011;56050;55.558;-4.644;2024-02-15T09:03:39;2.60;;;2.40;;
64851;SDS011;56050;55.558;-4.644;2024-02-15T09:06:05;3.97;;;1.77;;
64851;SDS011;56050;55.558;-4.644;2024-02-15T09:08:32;3.88;;;1.67;;
64851;SDS011;56050;55.558;-4.644;2024-02-15T09:10:58;1.02;;;0.95;;
64851;SDS011;56050;55.558;-4.644;2024-02-15T09:13:24;1.58;;;0.88;;
64851;SDS011;56050;55.558;-4.644;2024-02-15T09:15:50;0.73;;;0.45;;
64851;SDS011;56050;55.558;-4.644;2024-02-15T09:18:15;1.65;;;0.90;;
64851;SDS011;56050;55.558;-4.644;2024-02-15T09:20:43;3.28;;;1.15;;
64851;SDS011;56050;55.558;-4.644;2024-02-15T09:23:12;2.03;;;0.88;;
64851;SDS011;56050;55.558;-4.644;2024-02-15T09:25:39;1.50;;;0.80;;
64851;SDS011;56050;55.558;-4.644;2024-02-15T09:28:07;0.82;;;0.47;;
64851;SDS011;56050;55.558;-4.644;2024-02-15T09:30:33;2.28;;;0.70;;
64851;SDS011;56050;55.558;-4.644;2024-02-15T09:33:00;3.22;;;1.08;;
64851;SDS011;56050;55.558;-4.644;2024-02-15T09:35:28;1.63;;;0.68;;
64851;SDS011;56050;55.558;-4.644;2024-02-15T09:37:55;1.50;;;0.40;;
64851;SDS011;56050;55.558;-4.644;2024-02-15T09:40:21;2.25;;;0.57;;
64851;SDS011;56050;55.558;-4.644;2024-02-15T09:42:49;0.93;;;0.70;;
64851;SDS011;56050;55.558;-4.644;2024-02-15T09:45:16;1.08;;;0.68;;
64851;SDS011;56050;55.558;-4.644;2024-02-15T09:47:43;0.60;;;0.50;;
64851;SDS011;56050;55.558;-4.644;2024-02-15T09:52:38;1.38;;;1.27;;
64851;SDS011;56050;55.558;-4.644;2024-02-15T09:55:05;2.90;;;2.65;;
64851;SDS011;56050;55.558;-4.644;2024-02-15T09:57:36;1.15;;;0.88;;
64851;SDS011;56050;55.558;-4.644;2024-02-15T10:00:01;0.82;;;0.55;;
64851;SDS011;56050;55.558;-4.644;2024-02-15T10:02:32;0.85;;;0.38;;
64851;SDS011;56050;55.558;-4.644;2024-02-15T10:05:01;0.80;;;0.80;;
64851;SDS011;56050;55.558;-4.644;2024-02-15T10:07:27;1.48;;;0.38;;
64851;SDS011;56050;55.558;-4.644;2024-02-15T10:09:53;0.82;;;0.80;;
64851;SDS011;56050;55.558;-4.644;2024-02-15T10:12:19;0.50;;;0.22;;
64851;SDS011;56050;55.558;-4.644;2024-02-15T10:14:48;0.85;;;0.38;;
64851;SDS011;56050;55.558;-4.644;2024-02-15T10:17:20;0.85;;;0.40;;
64851;SDS011;56050;55.558;-4.644;2024-02-15T10:20:02;0.50;;;0.28;;
64851;SDS011;56050;55.558;-4.644;2024-02-15T10:22:28;0.57;;;0.43;;
64851;SDS011;56050;55.558;-4.644;2024-02-15T10:25:09;0.98;;;0.93;;
64851;SDS011;56050;55.558;-4.644;2024-02-15T10:27:36;0.55;;;0.52;;
64851;SDS011;56050;55.558;-4.644;2024-02-15T10:30:19;0.75;;;0.50;;
64851;SDS011;56050;55.558;-4.644;2024-02-15T10:32:45;1.15;;;0.55;;
64851;SDS011;56050;55.558;-4.644;2024-02-15T10:35:20;0.73;;;0.73;;
64851;SDS011;56050;55.558;-4.644;2024-02-15T10:37:51;0.30;;;0.30;;
64851;SDS011;56050;55.558;-4.644;2024-02-15T10:40:18;0.80;;;0.80;;
64851;SDS011;56050;55.558;-4.644;2024-02-15T10:42:45;1.05;;;0.70;;
64851;SDS011;56050;55.558;-4.644;2024-02-15T10:45:12;0.57;;;0.30;;
64851;SDS011;56050;55.558;-4.644;2024-02-15T10:47:39;0.70;;;0.70;;
64851;SDS011;56050;55.558;-4.644;2024-02-15T10:50:07;0.75;;;0.30;;
64851;SDS011;56050;55.558;-4.644;2024-02-15T10:52:34;0.85;;;0.82;;
64851;SDS011;56050;55.558;-4.644;2024-02-15T10:55:06;1.98;;;1.23;;
64851;SDS011;56050;55.558;-4.644;2024-02-15T10:57:39;0.85;;;0.43;;
64851;SDS011;56050;55.558;-4.644;2024-02-15T11:00:08;0.55;;;0.47;;
64851;SDS011;56050;55.558;-4.644;2024-02-15T11:02:42;4.90;;;1.08;;
64851;SDS011;56050;55.558;-4.644;2024-02-15T11:05:36;1.15;;;1.00;;
64851;SDS011;56050;55.558;-4.644;2024-02-15T11:08:07;0.90;;;0.63;;
64851;SDS011;56050;55.558;-4.644;2024-02-15T11:10:34;1.83;;;1.08;;
64851;SDS011;56050;55.558;-4.644;2024-02-15T11:13:01;1.55;;;0.90;;
64851;SDS011;56050;55.558;-4.644;2024-02-15T11:16:00;0.63;;;0.45;;
64851;SDS011;56050;55.558;-4.644;2024-02-15T11:22:08;0.80;;;0.63;;
64851;SDS011;56050;55.558;-4.644;2024-02-15T11:24:24;1.83;;;1.55;;
64851;SDS011;56050;55.558;-4.644;2024-02-15T11:26:50;0.93;;;0.75;;
64851;SDS011;56050;55.558;-4.644;2024-02-15T11:32:40;0.70;;;0.65;;
64851;SDS011;56050;55.558;-4.644;2024-02-15T11:40:13;1.90;;;1.80;;
64851;SDS011;56050;55.558;-4.644;2024-02-15T11:42:52;1.05;;;0.65;;
64851;SDS011;56050;55.558;-4.644;2024-02-15T11:45:19;0.52;;;0.52;;
64851;SDS011;56050;55.558;-4.644;2024-02-15T11:47:49;2.55;;;2.45;;
64851;SDS011;56050;55.558;-4.644;2024-02-15T11:50:16;0.88;;;0.47;;
64851;SDS011;56050;55.558;-4.644;2024-02-15T11:52:52;0.45;;;0.43;;
64851;SDS011;56050;55.558;-4.644;2024-02-15T11:55:34;1.20;;;0.30;;
64851;SDS011;56050;55.558;-4.644;2024-02-15T11:58:00;1.55;;;1.45;;
64851;SDS011;56050;55.558;-4.644;2024-02-15T12:00:30;1.52;;;1.42;;
64851;SDS011;56050;55.558;-4.644;2024-02-15T12:03:15;0.65;;;0.32;;
64851;SDS011;56050;55.558;-4.644;2024-02-15T12:06:00;2.00;;;0.55;;
64851;SDS011;56050;55.558;-4.644;2024-02-15T12:08:47;0.80;;;0.65;;
64851;SDS011;56050;55.558;-4.644;2024-02-15T12:11:33;1.00;;;0.50;;
64851;SDS011;56050;55.558;-4.644;2024-02-15T12:14:17;1.50;;;0.40;;
64851;SDS011;56050;55.558;-4.644;2024-02-15T12:17:03;0.77;;;0.32;;
64851;SDS011;56050;55.558;-4.644;2024-02-15T12:19:48;1.10;;;0.63;;
64851;SDS011;56050;55.558;-4.644;2024-02-15T12:22:17;1.15;;;1.05;;
64851;SDS011;56050;55.558;-4.644;2024-02-15T12:24:52;1.55;;;0.60;;
64851;SDS011;56050;55.558;-4.644;2024-02-15T12:27:21;0.85;;;0.68;;
64851;SDS011;56050;55.558;-4.644;2024-02-15T12:29:54;2.20;;;0.45;;
64851;SDS011;56050;55.558;-4.644;2024-02-15T12:32:23;1.90;;;1.75;;
64851;SDS011;56050;55.558;-4.644;2024-02-15T12:34:52;1.85;;;0.68;;
64851;SDS011;56050;55.558;-4.644;2024-02-15T12:37:19;1.27;;;0.60;;
64851;SDS011;56050;55.558;-4.644;2024-02-15T12:39:46;0.90;;;0.50;;
64851;SDS011;56050;55.558;-4.644;2024-02-15T12:42:13;0.68;;;0.68;;
64851;SDS011;56050;55.558;-4.644;2024-02-15T12:44:42;1.10;;;0.47;;
64851;SDS011;56050;55.558;-4.644;2024-02-15T12:49:42;2.15;;;0.35;;
64851;SDS011;56050;55.558;-4.644;2024-02-15T12:55:10;0.88;;;0.88;;
64851;SDS011;56050;55.558;-4.644;2024-02-15T12:57:41;2.42;;;1.55;;
64851;SDS011;56050;55.558;-4.644;2024-02-15T13:00:13;2.00;;;1.05;;
64851;SDS011;56050;55.558;-4.644;2024-02-15T13:02:43;2.47;;;0.50;;
64851;SDS011;56050;55.558;-4.644;2024-02-15T13:05:10;0.77;;;0.60;;
64851;SDS011;56050;55.558;-4.644;2024-02-15T13:07:36;3.30;;;1.25;;
64851;SDS011;56050;55.558;-4.644;2024-02-15T13:10:03;0.88;;;0.52;;
64851;SDS011;56050;55.558;-4.644;2024-02-15T13:12:32;2.97;;;2.28;;
64851;SDS011;56050;55.558;-4.644;2024-02-15T13:15:00;0.68;;;0.68;;
64851;SDS011;56050;55.558;-4.644;2024-02-15T13:19:59;0.70;;;0.45;;
64851;SDS011;56050;55.558;-4.644;2024-02-15T13:22:36;1.77;;;0.77;;
64851;SDS011;56050;55.558;-4.644;2024-02-15T13:25:03;0.95;;;0.40;;
64851;SDS011;56050;55.558;-4.644;2024-02-15T13:27:34;0.98;;;0.77;;
64851;SDS011;56050;55.558;-4.644;2024-02-15T13:30:00;1.80;;;1.00;;
64851;SDS011;56050;55.558;-4.644;2024-02-15T13:32:25;0.73;;;0.73;;
64851;SDS011;56050;55.558;-4.644;2024-02-15T13:34:51;4.00;;;0.60;;
64851;SDS011;56050;55.558;-4.644;2024-02-15T13:37:18;1.98;;;1.88;;
64851;SDS011;56050;55.558;-4.644;2024-02-15T13:39:46;1.17;;;0.57;;
64851;SDS011;56050;55.558;-4.644;2024-02-15T13:42:13;1.73;;;0.55;;
64851;SDS011;56050;55.558;-4.644;2024-02-15T13:44:38;0.65;;;0.30;;
64851;SDS011;56050;55.558;-4.644;2024-02-15T13:47:04;0.95;;;0.40;;
64851;SDS011;56050;55.558;-4.644;2024-02-15T13:49:30;0.47;;;0.43;;
64851;SDS011;56050;55.558;-4.644;2024-02-15T13:51:57;0.77;;;0.75;;
64851;SDS011;56050;55.558;-4.644;2024-02-15T13:54:27;0.57;;;0.30;;
64851;SDS011;56050;55.558;-4.644;2024-02-15T13:56:54;1.88;;;0.43;;
64851;SDS011;56050;55.558;-4.644;2024-02-15T13:59:20;0.43;;;0.30;;
64851;SDS011;56050;55.558;-4.644;2024-02-15T14:01:46;0.88;;;0.40;;
64851;SDS011;56050;55.558;-4.644;2024-02-15T14:04:11;1.95;;;1.38;;
64851;SDS011;56050;55.558;-4.644;2024-02-15T14:06:37;0.80;;;0.30;;
64851;SDS011;56050;55.558;-4.644;2024-02-15T14:09:05;0.35;;;0.30;;
64851;SDS011;56050;55.558;-4.644;2024-02-15T14:11:31;0.65;;;0.65;;
64851;SDS011;56050;55.558;-4.644;2024-02-15T14:13:57;1.45;;;0.90;;
64851;SDS011;56050;55.558;-4.644;2024-02-15T14:16:24;0.88;;;0.63;;
64851;SDS011;56050;55.558;-4.644;2024-02-15T14:18:50;1.00;;;0.88;;
64851;SDS011;56050;55.558;-4.644;2024-02-15T14:21:16;0.65;;;0.55;;
64851;SDS011;56050;55.558;-4.644;2024-02-15T14:23:43;0.70;;;0.20;;
64851;SDS011;56050;55.558;-4.644;2024-02-15T14:26:09;1.73;;;0.47;;
64851;SDS011;56050;55.558;-4.644;2024-02-15T14:28:35;1.23;;;0.85;;
64851;SDS011;56050;55.558;-4.644;2024-02-15T14:31:01;1.00;;;0.75;;
64851;SDS011;56050;55.558;-4.644;2024-02-15T14:33:45;0.85;;;0.85;;
64851;SDS011;56050;55.558;-4.644;2024-02-15T14:36:13;1.20;;;0.80;;
64851;SDS011;56050;55.558;-4.644;2024-02-15T14:38:39;0.95;;;0.50;;
64851;SDS011;56050;55.558;-4.644;2024-02-15T14:41:04;1.45;;;0.90;;
64851;SDS011;56050;55.558;-4.644;2024-02-15T14:43:31;0.63;;;0.40;;
64851;SDS011;56050;55.558;-4.644;2024-02-15T14:45:58;1.70;;;1.60;;
64851;SDS011;56050;55.558;-4.644;2024-02-15T14:48:26;0.63;;;0.43;;
64851;SDS011;56050;55.558;-4.644;2024-02-15T14:50:52;1.13;;;0.38;;
64851;SDS011;56050;55.558;-4.644;2024-02-15T14:53:18;0.52;;;0.32;;
64851;SDS011;56050;55.558;-4.644;2024-02-15T14:55:44;0.93;;;0.47;;
64851;SDS011;56050;55.558;-4.644;2024-02-15T14:58:14;1.08;;;0.75;;
64851;SDS011;56050;55.558;-4.644;2024-02-15T15:00:43;1.55;;;0.65;;
64851;SDS011;56050;55.558;-4.644;2024-02-15T15:03:12;1.20;;;1.02;;
64851;SDS011;56050;55.558;-4.644;2024-02-15T15:05:38;1.33;;;0.45;;
64851;SDS011;56050;55.558;-4.644;2024-02-15T15:08:22;1.20;;;0.75;;
64851;SDS011;56050;55.558;-4.644;2024-02-15T15:11:06;2.42;;;2.10;;
64851;SDS011;56050;55.558;-4.644;2024-02-15T15:13:50;2.45;;;0.70;;
64851;SDS011;56050;55.558;-4.644;2024-02-15T15:16:17;3.25;;;1.52;;
64851;SDS011;56050;55.558;-4.644;2024-02-15T15:18:46;3.42;;;0.85;;
64851;SDS011;56050;55.558;-4.644;2024-02-15T15:21:12;2.05;;;0.85;;